createdAt,value
2019-05-20T00:01:03.551Z,15.53
2019-05-20T00:03:32.552Z,15.51
2019-05-20T00:06:01.534Z,15.51
2019-05-20T00:08:30.406Z,15.38
2019-05-20T00:10:59.370Z,15.37
2019-05-20T00:13:28.417Z,15.32
2019-05-20T00:15:57.269Z,15.12
2019-05-20T00:18:26.331Z,15.09
2019-05-20T00:20:55.262Z,15.14
2019-05-20T00:23:24.213Z,15.37
2019-05-20T00:25:53.095Z,15.32
2019-05-20T00:28:22.066Z,15.30
2019-05-20T00:30:51.093Z,15.17
2019-05-20T00:33:20.052Z,15.26
2019-05-20T00:35:49.005Z,15.22
2019-05-20T00:38:17.895Z,15.22
2019-05-20T00:40:46.726Z,15.22
2019-05-20T00:43:15.598Z,15.34
2019-05-20T00:45:44.621Z,15.34
2019-05-20T00:48:13.487Z,15.29
2019-05-20T00:50:42.417Z,15.17
2019-05-20T00:53:11.410Z,15.03
2019-05-20T00:55:40.514Z,14.94
2019-05-20T00:58:09.506Z,14.78
2019-05-20T01:00:39.099Z,14.80
2019-05-20T01:03:08.060Z,14.73
2019-05-20T01:05:37.063Z,14.95
2019-05-20T01:08:06.995Z,14.83
2019-05-20T01:10:36.063Z,14.93
2019-05-20T01:13:05.010Z,15.07
2019-05-20T01:15:33.988Z,14.89
2019-05-20T01:18:03.011Z,14.77
2019-05-20T01:20:31.921Z,14.77
2019-05-20T01:23:00.802Z,14.89
2019-05-20T01:25:29.762Z,14.85
2019-05-20T01:27:58.729Z,14.85
2019-05-20T01:30:27.694Z,14.86
2019-05-20T01:32:56.657Z,14.73
2019-05-20T01:35:25.694Z,14.75
2019-05-20T01:37:57.444Z,14.67
2019-05-20T01:40:30.650Z,14.64
2019-05-20T01:43:02.790Z,14.70
2019-05-20T01:45:34.386Z,14.73
2019-05-20T01:48:07.087Z,14.68
2019-05-20T01:50:36.091Z,14.55
2019-05-20T01:53:04.901Z,14.40
2019-05-20T01:55:33.738Z,14.36
2019-05-20T01:58:02.764Z,14.25
2019-05-20T02:00:31.691Z,14.05
2019-05-20T02:03:00.574Z,14.17
2019-05-20T02:05:29.576Z,14.14
2019-05-20T02:07:58.849Z,13.97
2019-05-20T02:10:27.705Z,13.80
2019-05-20T02:12:56.711Z,13.73
2019-05-20T02:15:37.726Z,13.57
2019-05-20T02:18:06.619Z,13.57
2019-05-20T02:20:35.635Z,13.54
2019-05-20T02:23:14.893Z,13.43
2019-05-20T02:25:47.829Z,13.28
2019-05-20T02:28:17.208Z,13.10
2019-05-20T02:30:46.058Z,13.07
2019-05-20T02:33:15.014Z,13.01
2019-05-20T02:35:43.933Z,12.94
2019-05-20T02:38:12.821Z,12.94
2019-05-20T02:40:41.807Z,12.81
2019-05-20T02:43:10.694Z,12.71
2019-05-20T02:45:39.631Z,12.60
2019-05-20T02:48:08.611Z,12.68
2019-05-20T02:50:37.618Z,12.75
2019-05-20T02:53:06.578Z,12.73
2019-05-20T02:55:35.480Z,12.76
2019-05-20T02:58:04.435Z,12.68
2019-05-20T03:00:33.393Z,12.83
2019-05-20T03:03:02.365Z,13.06
2019-05-20T03:05:31.176Z,12.85
2019-05-20T03:08:00.174Z,12.77
2019-05-20T03:10:29.127Z,13.11
2019-05-20T03:12:58.067Z,13.40
2019-05-20T03:15:27.043Z,13.31
2019-05-20T03:17:55.986Z,13.32
2019-05-20T03:20:25.036Z,13.36
2019-05-20T03:22:55.472Z,13.34
2019-05-20T03:25:24.445Z,13.44
2019-05-20T03:27:53.387Z,13.49
2019-05-20T03:30:22.472Z,13.48
2019-05-20T03:32:51.473Z,13.48
2019-05-20T03:35:20.448Z,13.36
2019-05-20T03:37:49.432Z,13.46
2019-05-20T03:40:18.466Z,13.51
2019-05-20T03:42:47.516Z,13.34
2019-05-20T03:45:16.583Z,13.12
2019-05-20T03:47:45.481Z,13.04
2019-05-20T03:50:14.775Z,13.08
2019-05-20T03:52:43.598Z,13.09
2019-05-20T03:55:12.615Z,12.93
2019-05-20T03:57:41.628Z,12.84
2019-05-20T04:00:11.765Z,12.81
2019-05-20T04:02:40.704Z,12.76
2019-05-20T04:05:09.721Z,12.75
2019-05-20T04:07:38.608Z,12.79
2019-05-20T04:10:07.868Z,12.81
2019-05-20T04:12:36.863Z,12.77
2019-05-20T04:15:06.041Z,12.75
2019-05-20T04:17:35.025Z,12.79
2019-05-20T04:20:04.141Z,12.79
2019-05-20T04:22:32.951Z,12.94
2019-05-20T04:25:02.048Z,12.93
2019-05-20T04:27:31.044Z,12.87
2019-05-20T04:30:00.048Z,12.90
2019-05-20T04:32:29.237Z,12.98
2019-05-20T04:35:18.322Z,13.06
2019-05-20T04:37:31.176Z,13.03
2019-05-20T04:40:00.181Z,13.08
2019-05-20T04:42:29.373Z,13.18
2019-05-20T04:44:58.386Z,13.24
2019-05-20T04:47:27.300Z,13.21
2019-05-20T04:49:56.297Z,13.16
2019-05-20T04:52:25.363Z,13.10
2019-05-20T04:54:54.222Z,13.31
2019-05-20T04:57:23.192Z,13.38
2019-05-20T04:59:52.166Z,13.38
2019-05-20T05:02:21.063Z,13.59
2019-05-20T05:04:50.142Z,13.59
2019-05-20T05:07:19.135Z,13.59
2019-05-20T05:09:48.128Z,13.59
2019-05-20T05:12:17.159Z,13.63
2019-05-20T05:14:46.114Z,13.79
2019-05-20T05:17:15.321Z,13.89
2019-05-20T05:19:44.302Z,13.95
2019-05-20T05:22:13.692Z,13.92
2019-05-20T05:24:42.890Z,14.11
2019-05-20T05:27:11.884Z,14.18
2019-05-20T05:29:40.845Z,14.20
2019-05-20T05:32:09.854Z,14.25
2019-05-20T05:34:39.233Z,14.19
2019-05-20T05:37:08.246Z,14.33
2019-05-20T05:39:37.304Z,14.36
2019-05-20T05:42:06.376Z,14.48
2019-05-20T05:44:35.383Z,14.64
2019-05-20T05:47:04.343Z,14.80
2019-05-20T05:49:33.189Z,14.93
2019-05-20T05:52:02.161Z,14.91
2019-05-20T05:54:31.124Z,14.94
2019-05-20T05:56:59.974Z,15.06
2019-05-20T05:59:28.987Z,15.17
2019-05-20T06:01:57.920Z,15.19
2019-05-20T06:04:26.894Z,15.15
2019-05-20T06:06:55.893Z,14.91
2019-05-20T06:09:24.700Z,14.94
2019-05-20T06:11:53.610Z,14.79
2019-05-20T06:14:22.450Z,14.61
2019-05-20T06:16:51.411Z,14.90
2019-05-20T06:19:23.185Z,14.97
2019-05-20T06:21:52.209Z,15.01
2019-05-20T06:24:21.189Z,14.88
2019-05-20T06:26:50.196Z,14.93
2019-05-20T06:29:20.668Z,14.99
2019-05-20T06:31:49.912Z,15.02
2019-05-20T06:34:19.060Z,15.19
2019-05-20T06:36:50.838Z,15.21
2019-05-20T06:39:19.789Z,15.28
2019-05-20T06:41:48.662Z,15.27
2019-05-20T06:44:17.668Z,15.17
2019-05-20T06:46:46.572Z,15.34
2019-05-20T06:49:15.427Z,15.29
2019-05-20T06:51:44.402Z,15.01
2019-05-20T06:54:13.320Z,15.06
2019-05-20T06:56:42.408Z,15.11
2019-05-20T06:59:11.612Z,15.08
2019-05-20T07:01:40.634Z,14.85
2019-05-20T07:04:09.591Z,15.01
2019-05-20T07:06:46.818Z,14.95
2019-05-20T07:09:09.285Z,15.15
2019-05-20T07:11:38.457Z,14.93
2019-05-20T07:14:07.566Z,15.03
2019-05-20T07:16:36.608Z,15.01
2019-05-20T07:19:05.788Z,15.08
2019-05-20T07:21:34.642Z,14.99
2019-05-20T07:24:04.080Z,15.15
2019-05-20T07:26:33.361Z,14.98
2019-05-20T07:29:02.353Z,15.09
2019-05-20T07:31:31.338Z,15.22
2019-05-20T07:34:00.304Z,15.22
2019-05-20T07:36:29.190Z,15.22
2019-05-20T07:38:58.137Z,15.03
2019-05-20T07:41:27.079Z,15.21
2019-05-20T07:43:56.064Z,15.30
2019-05-20T07:46:25.604Z,15.53
2019-05-20T07:48:55.082Z,15.92
2019-05-20T07:51:24.618Z,16.29
2019-05-20T07:53:53.692Z,17.09
2019-05-20T07:56:26.091Z,17.37
2019-05-20T07:58:58.109Z,17.80
2019-05-20T08:01:27.600Z,17.82
2019-05-20T08:03:56.621Z,17.78
2019-05-20T08:06:25.641Z,17.38
2019-05-20T08:08:54.674Z,17.56
2019-05-20T08:11:23.596Z,17.58
2019-05-20T08:13:56.720Z,17.79
2019-05-20T08:16:25.828Z,17.63
2019-05-20T08:18:54.919Z,17.83
2019-05-20T08:21:23.811Z,17.32
2019-05-20T08:23:52.864Z,17.44
2019-05-20T08:26:21.910Z,16.97
2019-05-20T08:28:50.954Z,17.02
2019-05-20T08:31:19.929Z,16.99
2019-05-20T08:33:48.747Z,17.30
2019-05-20T08:36:17.694Z,17.62
2019-05-20T08:38:46.481Z,17.74
2019-05-20T08:41:15.784Z,18.12
2019-05-20T08:43:49.722Z,18.16
2019-05-20T08:46:18.888Z,18.04
2019-05-20T08:48:47.864Z,18.13
2019-05-20T08:51:16.797Z,17.95
2019-05-20T08:53:45.828Z,18.19
2019-05-20T08:56:14.811Z,18.19
2019-05-20T08:58:43.603Z,18.61
2019-05-20T09:01:12.669Z,19.15
2019-05-20T09:03:41.479Z,19.27
2019-05-20T09:06:10.609Z,19.58
2019-05-20T09:08:39.662Z,18.91
2019-05-20T09:11:08.653Z,18.50
2019-05-20T09:13:37.637Z,18.35
2019-05-20T09:16:06.599Z,18.61
2019-05-20T09:18:35.604Z,18.20
2019-05-20T09:21:04.575Z,18.33
2019-05-20T09:23:33.549Z,18.17
2019-05-20T09:26:02.405Z,18.61
2019-05-20T09:28:31.318Z,18.61
2019-05-20T09:31:00.238Z,18.97
2019-05-20T09:33:29.303Z,18.71
2019-05-20T09:35:58.386Z,18.71
2019-05-20T09:38:27.252Z,18.58
2019-05-20T09:40:56.234Z,18.55
2019-05-20T09:43:26.080Z,18.54
2019-05-20T09:46:06.706Z,18.65
2019-05-20T09:48:25.703Z,18.61
2019-05-20T09:50:54.720Z,18.78
2019-05-20T09:53:24.132Z,18.53
2019-05-20T09:55:53.098Z,18.22
2019-05-20T09:58:21.978Z,18.34
2019-05-20T10:00:50.986Z,18.17
2019-05-20T10:03:19.981Z,17.99
2019-05-20T10:05:48.869Z,18.16
2019-05-20T10:08:34.517Z,17.94
2019-05-20T10:10:48.559Z,17.99
2019-05-20T10:13:17.545Z,18.30
2019-05-20T10:15:46.439Z,18.39
2019-05-20T10:18:15.377Z,18.15
2019-05-20T10:20:44.259Z,18.36
2019-05-20T10:23:15.759Z,17.91
2019-05-20T10:25:43.879Z,17.91
2019-05-20T10:28:12.873Z,18.25
2019-05-20T10:30:41.901Z,18.29
2019-05-20T10:33:11.105Z,17.89
2019-05-20T10:35:40.233Z,18.24
2019-05-20T10:38:09.270Z,17.88
2019-05-20T10:40:38.307Z,18.20
2019-05-20T10:43:07.186Z,17.92
2019-05-20T10:45:36.268Z,18.03
2019-05-20T10:48:08.768Z,18.61
2019-05-20T10:50:36.122Z,18.49
2019-05-20T10:53:05.229Z,18.85
2019-05-20T10:55:38.134Z,18.44
2019-05-20T10:58:06.755Z,18.78
2019-05-20T11:00:35.770Z,18.81
2019-05-20T11:03:04.826Z,18.73
2019-05-20T11:05:42.346Z,18.68
2019-05-20T11:08:39.675Z,18.74
2019-05-20T11:11:14.181Z,18.52
2019-05-20T11:13:40.977Z,19.00
2019-05-20T11:16:09.888Z,19.21
2019-05-20T11:18:38.739Z,19.57
2019-05-20T11:21:07.635Z,19.62
2019-05-20T11:23:36.598Z,19.68
2019-05-20T11:26:05.553Z,19.27
2019-05-20T11:28:34.570Z,19.04
2019-05-20T11:31:03.545Z,19.12
2019-05-20T11:33:32.557Z,19.08
2019-05-20T11:36:01.438Z,19.10
2019-05-20T11:38:30.723Z,19.14
2019-05-20T11:40:59.629Z,19.44
2019-05-20T11:43:28.581Z,19.09
2019-05-20T11:45:57.495Z,19.13
2019-05-20T11:48:26.345Z,19.32
2019-05-20T11:50:55.097Z,19.04
2019-05-20T11:53:23.988Z,19.22
2019-05-20T11:55:52.858Z,18.97
2019-05-20T11:58:21.948Z,18.72
2019-05-20T12:00:50.935Z,18.89
2019-05-20T12:03:19.871Z,19.00
2019-05-20T12:05:48.792Z,19.00
2019-05-20T12:08:17.661Z,19.20
2019-05-20T12:10:46.580Z,18.96
2019-05-20T12:13:16.497Z,18.57
2019-05-20T12:15:45.439Z,18.43
2019-05-20T12:18:14.314Z,18.33
2019-05-20T12:20:43.232Z,18.29
2019-05-20T12:23:12.221Z,18.11
2019-05-20T12:25:41.059Z,18.64
2019-05-20T12:28:10.192Z,19.12
2019-05-20T12:30:39.543Z,18.91
2019-05-20T12:33:18.516Z,18.57
2019-05-20T12:35:38.935Z,18.86
2019-05-20T12:38:07.895Z,18.98
2019-05-20T12:40:36.751Z,19.06
2019-05-20T12:43:05.713Z,18.86
2019-05-20T12:45:34.653Z,18.61
2019-05-20T12:48:03.604Z,18.52
2019-05-20T12:50:32.551Z,18.15
2019-05-20T12:53:01.458Z,18.03
2019-05-20T12:55:30.394Z,18.24
2019-05-20T12:57:59.358Z,17.98
2019-05-20T13:00:28.286Z,17.83
2019-05-20T13:02:57.169Z,17.96
2019-05-20T13:05:26.189Z,18.17
2019-05-20T13:07:55.268Z,18.00
2019-05-20T13:10:29.546Z,18.07
2019-05-20T13:12:55.047Z,18.27
2019-05-20T13:15:24.061Z,17.83
2019-05-20T13:17:53.451Z,17.55
2019-05-20T13:20:22.800Z,17.53
2019-05-20T13:22:51.965Z,17.27
2019-05-20T13:25:20.912Z,17.28
2019-05-20T13:27:49.787Z,17.60
2019-05-20T13:30:19.254Z,17.50
2019-05-20T13:32:48.193Z,17.74
2019-05-20T13:35:17.637Z,18.21
2019-05-20T13:37:46.671Z,18.40
2019-05-20T13:40:16.152Z,18.29
2019-05-20T13:42:45.010Z,18.15
2019-05-20T13:45:14.437Z,17.69
2019-05-20T13:47:43.207Z,17.68
2019-05-20T13:50:12.905Z,18.01
2019-05-20T13:52:41.839Z,17.88
2019-05-20T13:55:11.420Z,17.82
2019-05-20T13:57:40.432Z,17.51
2019-05-20T14:00:10.263Z,17.75
2019-05-20T14:02:39.389Z,17.90
2019-05-20T14:05:08.359Z,17.76
2019-05-20T14:07:37.172Z,17.21
2019-05-20T14:10:06.415Z,17.04
2019-05-20T14:12:35.403Z,17.10
2019-05-20T14:15:04.805Z,17.26
2019-05-20T14:17:33.814Z,17.26
2019-05-20T14:20:03.134Z,17.10
2019-05-20T14:22:32.206Z,17.00
2019-05-20T14:25:03.634Z,16.91
2019-05-20T14:27:32.629Z,16.79
2019-05-20T14:30:01.612Z,16.91
2019-05-20T14:32:30.677Z,16.72
2019-05-20T14:34:59.610Z,16.90
2019-05-20T14:37:28.667Z,17.03
2019-05-20T14:39:57.698Z,16.95
2019-05-20T14:42:26.631Z,16.65
2019-05-20T14:44:55.541Z,16.41
2019-05-20T14:47:26.164Z,16.48
2019-05-20T14:49:55.169Z,16.31
2019-05-20T14:52:24.293Z,16.73
2019-05-20T14:54:53.287Z,16.70
2019-05-20T14:57:22.209Z,16.43
2019-05-20T14:59:51.227Z,16.71
2019-05-20T15:02:20.119Z,16.58
2019-05-20T15:04:49.160Z,16.48
2019-05-20T15:07:29.151Z,16.82
2019-05-20T15:09:48.852Z,16.23
2019-05-20T15:12:17.769Z,16.14
2019-05-20T15:14:46.639Z,16.34
2019-05-20T15:17:15.646Z,16.38
2019-05-20T15:19:44.612Z,16.24
2019-05-20T15:22:13.931Z,16.41
2019-05-20T15:24:42.807Z,16.34
2019-05-20T15:27:11.801Z,16.55
2019-05-20T15:29:40.796Z,16.41
2019-05-20T15:32:09.680Z,16.37
2019-05-20T15:34:38.859Z,16.62
2019-05-20T15:37:07.874Z,16.44
2019-05-20T15:39:36.751Z,16.34
2019-05-20T15:42:05.786Z,16.23
2019-05-20T15:44:34.933Z,15.80
2019-05-20T15:47:03.793Z,15.81
2019-05-20T15:49:32.631Z,15.81
2019-05-20T15:52:01.549Z,15.87
2019-05-20T15:54:30.442Z,15.84
2019-05-20T15:56:59.493Z,15.75
2019-05-20T15:59:43.141Z,15.69
2019-05-20T16:01:59.041Z,15.69
2019-05-20T16:04:27.957Z,15.60
2019-05-20T16:07:00.174Z,15.75
2019-05-20T16:09:27.531Z,15.74
2019-05-20T16:11:57.459Z,15.72
2019-05-20T16:14:26.354Z,15.67
2019-05-20T16:16:55.289Z,15.76
2019-05-20T16:19:24.301Z,15.72
2019-05-20T16:21:53.302Z,15.64
2019-05-20T16:24:22.230Z,15.64
2019-05-20T16:26:51.227Z,15.68
2019-05-20T16:29:20.211Z,15.75
2019-05-20T16:31:49.115Z,15.70
2019-05-20T16:34:18.051Z,15.71
2019-05-20T16:36:47.080Z,15.71
2019-05-20T16:39:16.504Z,15.77
2019-05-20T16:41:45.574Z,15.72
2019-05-20T16:44:14.536Z,15.67
2019-05-20T16:46:43.529Z,15.72
2019-05-20T16:49:12.571Z,15.93
2019-05-20T16:51:41.513Z,15.80
2019-05-20T16:54:10.458Z,15.80
2019-05-20T16:56:39.434Z,15.94
2019-05-20T16:59:08.518Z,15.72
2019-05-20T17:01:45.930Z,15.56
2019-05-20T17:04:08.188Z,15.70
2019-05-20T17:06:37.212Z,15.79
2019-05-20T17:09:06.457Z,15.72
2019-05-20T17:11:35.539Z,15.82
2019-05-20T17:14:04.579Z,15.86
2019-05-20T17:16:33.646Z,15.70
2019-05-20T17:19:02.690Z,15.64
2019-05-20T17:21:31.581Z,15.42
2019-05-20T17:24:00.524Z,15.43
2019-05-20T17:26:29.493Z,15.36
2019-05-20T17:28:58.464Z,15.56
2019-05-20T17:31:30.679Z,15.69
2019-05-20T17:33:58.223Z,15.59
2019-05-20T17:36:27.363Z,15.57
2019-05-20T17:38:56.186Z,15.69
2019-05-20T17:41:25.330Z,15.59
2019-05-20T17:43:54.236Z,15.73
2019-05-20T17:46:23.354Z,15.67
2019-05-20T17:48:52.400Z,15.71
2019-05-20T17:51:21.400Z,15.57
2019-05-20T17:53:50.459Z,15.59
2019-05-20T17:56:19.673Z,15.55
2019-05-20T17:58:48.651Z,15.47
2019-05-20T18:01:17.523Z,15.45
2019-05-20T18:03:46.575Z,15.52
2019-05-20T18:06:15.517Z,15.42
2019-05-20T18:08:47.420Z,15.41
2019-05-20T18:11:19.259Z,15.33
2019-05-20T18:13:47.117Z,15.44
2019-05-20T18:16:16.079Z,15.48
2019-05-20T18:18:44.979Z,15.40
2019-05-20T18:21:13.907Z,15.32
2019-05-20T18:23:42.806Z,15.28
2019-05-20T18:26:11.801Z,15.22
2019-05-20T18:28:41.095Z,15.20
2019-05-20T18:31:10.079Z,15.15
2019-05-20T18:33:39.098Z,15.11
2019-05-20T18:36:08.088Z,15.13
2019-05-20T18:38:36.978Z,15.09
2019-05-20T18:41:05.945Z,15.18
2019-05-20T18:43:35.004Z,15.00
2019-05-20T18:46:03.904Z,14.89
2019-05-20T18:48:33.102Z,15.09
2019-05-20T18:51:02.231Z,15.14
2019-05-20T18:53:31.254Z,15.11
2019-05-20T18:56:00.313Z,15.13
2019-05-20T18:58:29.291Z,15.13
2019-05-20T19:00:58.213Z,15.21
2019-05-20T19:03:28.238Z,15.11
2019-05-20T19:05:57.820Z,15.09
2019-05-20T19:08:26.818Z,15.09
2019-05-20T19:10:59.187Z,15.02
2019-05-20T19:13:28.442Z,15.05
2019-05-20T19:15:57.387Z,14.96
2019-05-20T19:18:26.337Z,14.92
2019-05-20T19:20:55.255Z,14.99
2019-05-20T19:23:24.234Z,14.89
2019-05-20T19:25:53.228Z,14.90
2019-05-20T19:28:22.456Z,14.81
2019-05-20T19:30:51.519Z,14.83
2019-05-20T19:33:21.332Z,14.72
2019-05-20T19:35:50.279Z,14.77
2019-05-20T19:38:19.355Z,14.84
2019-05-20T19:40:48.395Z,14.78
2019-05-20T19:43:17.355Z,14.75
2019-05-20T19:45:46.304Z,14.74
2019-05-20T19:48:15.315Z,14.72
2019-05-20T19:50:44.349Z,14.72
2019-05-20T19:53:13.447Z,14.75
2019-05-20T19:55:42.334Z,14.73
2019-05-20T19:58:11.408Z,14.73
2019-05-20T20:00:40.263Z,14.66
2019-05-20T20:03:09.224Z,14.68
2019-05-20T20:05:38.179Z,14.69
2019-05-20T20:08:07.194Z,14.70
2019-05-20T20:10:36.185Z,14.77
2019-05-20T20:13:05.332Z,14.68
2019-05-20T20:15:34.324Z,14.67
2019-05-20T20:18:03.521Z,14.63
2019-05-20T20:20:32.392Z,14.71
2019-05-20T20:23:01.393Z,14.72
2019-05-20T20:25:30.449Z,14.72
2019-05-20T20:27:59.400Z,14.66
2019-05-20T20:30:28.569Z,14.63
2019-05-20T20:32:58.018Z,14.58
2019-05-20T20:35:37.770Z,14.63
2019-05-20T20:37:57.720Z,14.57
2019-05-20T20:40:26.708Z,14.47
2019-05-20T20:42:55.638Z,14.41
2019-05-20T20:45:24.622Z,14.39
2019-05-20T20:47:56.300Z,14.53
2019-05-20T20:50:27.109Z,14.44
2019-05-20T20:52:56.451Z,14.40
2019-05-20T20:55:26.360Z,14.36
2019-05-20T20:57:55.528Z,14.34
2019-05-20T21:00:24.769Z,14.33
2019-05-20T21:02:54.417Z,14.26
2019-05-20T21:05:24.228Z,14.26
2019-05-20T21:07:53.247Z,14.24
2019-05-20T21:10:27.133Z,14.21
2019-05-20T21:12:56.774Z,14.23
2019-05-20T21:15:25.798Z,14.17
2019-05-20T21:17:54.659Z,14.19
2019-05-20T21:20:23.617Z,14.28
2019-05-20T21:22:52.563Z,14.31
2019-05-20T21:25:21.532Z,14.19
2019-05-20T21:27:50.412Z,14.20
2019-05-20T21:30:19.416Z,14.19
2019-05-20T21:32:48.364Z,14.18
2019-05-20T21:35:17.403Z,14.25
2019-05-20T21:37:46.351Z,14.34
2019-05-20T21:40:15.411Z,14.29
2019-05-20T21:42:44.536Z,14.27
2019-05-20T21:45:14.043Z,14.21
2019-05-20T21:47:44.802Z,14.19
2019-05-20T21:50:13.851Z,14.14
2019-05-20T21:52:43.062Z,14.04
2019-05-20T21:55:12.328Z,14.11
2019-05-20T21:57:41.367Z,14.17
2019-05-20T22:00:12.924Z,14.13
2019-05-20T22:02:41.940Z,14.05
2019-05-20T22:05:11.140Z,14.14
2019-05-20T22:07:39.963Z,14.09
2019-05-20T22:10:09.760Z,14.12
2019-05-20T22:12:38.825Z,14.15
2019-05-20T22:15:07.885Z,14.09
2019-05-20T22:17:36.830Z,14.06
2019-05-20T22:20:06.076Z,14.11
2019-05-20T22:22:49.134Z,14.14
2019-05-20T22:25:18.041Z,14.10
2019-05-20T22:27:49.883Z,14.07
2019-05-20T22:30:18.952Z,14.14
2019-05-20T22:32:47.904Z,14.00
2019-05-20T22:35:16.803Z,14.12
2019-05-20T22:37:45.597Z,14.09
2019-05-20T22:40:14.635Z,14.11
2019-05-20T22:42:43.519Z,14.19
2019-05-20T22:45:12.615Z,14.18
2019-05-20T22:47:41.542Z,14.10
2019-05-20T22:50:10.521Z,14.17
2019-05-20T22:52:39.341Z,14.12
2019-05-20T22:55:08.343Z,14.13
2019-05-20T22:57:37.328Z,14.05
2019-05-20T23:00:07.427Z,14.10
2019-05-20T23:02:36.356Z,14.16
2019-05-20T23:05:05.844Z,14.10
2019-05-20T23:07:34.848Z,14.11
2019-05-20T23:10:04.011Z,14.09
2019-05-20T23:12:32.922Z,14.04
2019-05-20T23:15:02.023Z,14.07
2019-05-20T23:17:30.989Z,14.09
2019-05-20T23:19:59.932Z,14.07
2019-05-20T23:22:29.000Z,14.06
2019-05-20T23:24:57.904Z,14.05
2019-05-20T23:27:26.903Z,14.12
2019-05-20T23:29:55.885Z,14.04
2019-05-20T23:32:24.794Z,14.04
2019-05-20T23:34:53.780Z,14.03
2019-05-20T23:37:22.781Z,14.05
2019-05-20T23:39:51.767Z,14.10
2019-05-20T23:42:20.784Z,14.09
2019-05-20T23:44:49.827Z,14.01
2019-05-20T23:47:18.939Z,14.01
2019-05-20T23:49:47.846Z,13.98
2019-05-20T23:52:16.722Z,13.99
2019-05-20T23:54:45.712Z,14.04
2019-05-20T23:57:14.703Z,13.99
2019-05-20T23:59:45.203Z,13.95
